createdAt,value
2023-04-16T00:01:06.253Z,10.88
2023-04-16T00:04:03.089Z,10.77
2023-04-16T00:07:00.380Z,10.75
2023-04-16T00:09:55.939Z,10.56
2023-04-16T00:12:54.479Z,10.82
2023-04-16T00:15:53.040Z,10.57
2023-04-16T00:18:52.596Z,10.51
2023-04-16T00:21:52.198Z,10.53
2023-04-16T00:24:52.729Z,10.89
2023-04-16T00:27:52.220Z,10.89
2023-04-16T00:30:50.840Z,10.86
2023-04-16T00:33:49.342Z,10.8
2023-04-16T00:36:44.937Z,10.89
2023-04-16T00:39:40.478Z,10.94
2023-04-16T00:42:38.107Z,10.84
2023-04-16T00:45:34.582Z,10.82
2023-04-16T00:48:36.126Z,10.7
2023-04-16T00:51:32.648Z,10.55
2023-04-16T00:54:32.211Z,10.53
2023-04-16T00:57:30.806Z,10.55
2023-04-16T01:00:29.388Z,10.73
2023-04-16T01:03:32.087Z,10.63
2023-04-16T01:06:30.481Z,10.55
2023-04-16T01:09:28.000Z,10.53
2023-04-16T01:12:23.568Z,10.3
2023-04-16T01:15:21.177Z,10.3
2023-04-16T01:18:18.655Z,10.32
2023-04-16T01:21:16.238Z,10.22
2023-04-16T01:24:13.854Z,10.26
2023-04-16T01:27:11.355Z,10.15
2023-04-16T01:30:07.931Z,10.19
2023-04-16T01:33:04.465Z,9.99
2023-04-16T01:36:01.028Z,9.98
2023-04-16T01:38:57.617Z,9.84
2023-04-16T01:41:54.145Z,9.86
2023-04-16T01:44:54.653Z,9.91
2023-04-16T01:47:52.321Z,9.9
2023-04-16T01:50:48.831Z,9.94
2023-04-16T01:53:44.329Z,9.96
2023-04-16T01:56:42.945Z,10
2023-04-16T01:59:38.514Z,9.98
2023-04-16T02:02:40.162Z,9.95
2023-04-16T02:05:37.595Z,9.89
2023-04-16T02:08:34.180Z,9.87
2023-04-16T02:11:31.750Z,9.98
2023-04-16T02:14:27.256Z,9.91
2023-04-16T02:17:22.856Z,9.82
2023-04-16T02:20:20.378Z,9.71
2023-04-16T02:23:15.926Z,9.63
2023-04-16T02:26:13.504Z,9.65
2023-04-16T02:29:09.280Z,9.61
2023-04-16T02:32:04.674Z,9.49
2023-04-16T02:35:03.200Z,9.51
2023-04-16T02:37:58.715Z,9.5
2023-04-16T02:40:54.319Z,9.63
2023-04-16T02:43:50.912Z,9.58
2023-04-16T02:46:46.443Z,9.39
2023-04-16T02:49:41.983Z,9.29
2023-04-16T02:52:37.559Z,9.21
2023-04-16T02:55:33.157Z,9.11
2023-04-16T02:58:28.688Z,9.2
2023-04-16T03:01:24.271Z,9.16
2023-04-16T03:04:19.797Z,9.23
2023-04-16T03:07:17.378Z,9.15
2023-04-16T03:10:13.899Z,9.21
2023-04-16T03:13:10.470Z,9.13
2023-04-16T03:16:08.066Z,9.08
2023-04-16T03:19:03.540Z,9.02
2023-04-16T03:21:59.153Z,9.07
2023-04-16T03:24:54.675Z,9.14
2023-04-16T03:27:50.265Z,9.11
2023-04-16T03:30:50.879Z,9.11
2023-04-16T03:33:47.363Z,9.21
2023-04-16T03:36:42.977Z,8.95
2023-04-16T03:39:38.517Z,8.85
2023-04-16T03:42:36.046Z,9.03
2023-04-16T03:45:32.660Z,9.06
2023-04-16T03:48:28.180Z,9.12
2023-04-16T03:51:24.741Z,9.16
2023-04-16T03:54:22.867Z,8.91
2023-04-16T03:57:18.851Z,8.93
2023-04-16T04:00:14.397Z,8.83
2023-04-16T04:03:12.184Z,8.86
2023-04-16T04:06:08.530Z,8.88
2023-04-16T04:09:04.104Z,9.02
2023-04-16T04:11:59.686Z,9.03
2023-04-16T04:14:56.198Z,8.99
2023-04-16T04:17:52.816Z,8.93
2023-04-16T04:20:48.346Z,8.86
2023-04-16T04:23:43.905Z,8.68
2023-04-16T04:26:40.450Z,8.64
2023-04-16T04:29:35.998Z,8.87
2023-04-16T04:32:32.616Z,8.96
2023-04-16T04:35:28.126Z,9.09
2023-04-16T04:38:24.704Z,8.9
2023-04-16T04:41:21.257Z,9.03
2023-04-16T04:44:17.836Z,9.07
2023-04-16T04:47:13.369Z,9.24
2023-04-16T04:50:09.943Z,9.33
2023-04-16T04:53:09.506Z,9.24
2023-04-16T04:59:06.600Z,9.2
2023-04-16T05:02:03.220Z,9.25
2023-04-16T05:04:59.731Z,9.46
2023-04-16T05:07:55.230Z,9.25
2023-04-16T05:10:51.831Z,9.27
2023-04-16T05:13:47.366Z,9.35
2023-04-16T05:16:43.008Z,9.71
2023-04-16T05:19:38.486Z,9.55
2023-04-16T05:22:34.090Z,9.57
2023-04-16T05:25:29.643Z,9.75
2023-04-16T05:28:25.184Z,9.6
2023-04-16T05:31:20.883Z,9.63
2023-04-16T05:34:17.305Z,9.65
2023-04-16T05:37:13.870Z,9.65
2023-04-16T05:40:10.423Z,9.7
2023-04-16T05:43:05.973Z,9.99
2023-04-16T05:46:02.580Z,10.01
2023-04-16T05:48:59.136Z,10.38
2023-04-16T05:51:56.671Z,10.42
2023-04-16T05:54:52.192Z,10.45
2023-04-16T05:57:47.756Z,10.61
2023-04-16T06:00:43.324Z,10.38
2023-04-16T06:03:39.080Z,10.68
2023-04-16T06:06:34.510Z,10.82
2023-04-16T06:09:30.088Z,10.99
2023-04-16T06:12:25.554Z,11.1
2023-04-16T06:15:21.156Z,11.14
2023-04-16T06:18:16.700Z,11.24
2023-04-16T06:21:12.283Z,11.31
2023-04-16T06:24:07.843Z,11.57
2023-04-16T06:27:03.380Z,11.54
2023-04-16T06:29:58.960Z,11.73
2023-04-16T06:32:54.566Z,11.93
2023-04-16T06:35:52.082Z,12.1
2023-04-16T06:38:47.621Z,11.93
2023-04-16T06:41:43.155Z,12.42
2023-04-16T06:44:38.764Z,12.55
2023-04-16T06:47:34.325Z,12.77
2023-04-16T06:50:30.888Z,13.15
2023-04-16T06:53:26.457Z,13.02
2023-04-16T06:56:21.982Z,13.41
2023-04-16T06:59:17.536Z,13.65
2023-04-16T07:02:13.333Z,13.5
2023-04-16T07:05:09.668Z,13.35
2023-04-16T07:08:06.228Z,13.47
2023-04-16T07:11:02.829Z,13.73
2023-04-16T07:13:59.416Z,13.63
2023-04-16T07:16:55.025Z,13.67
2023-04-16T07:19:51.491Z,13.63
2023-04-16T07:22:48.025Z,13.88
2023-04-16T07:25:44.541Z,13.94
2023-04-16T07:28:41.171Z,14.21
2023-04-16T07:31:38.781Z,14.17
2023-04-16T07:34:34.303Z,14.36
2023-04-16T07:37:30.841Z,14.51
2023-04-16T07:40:29.337Z,15
2023-04-16T07:43:25.933Z,15
2023-04-16T07:46:21.847Z,14.97
2023-04-16T07:49:18.047Z,15.1
2023-04-16T07:52:14.665Z,14.73
2023-04-16T07:55:10.165Z,14.93
2023-04-16T07:58:07.737Z,15.02
2023-04-16T08:01:04.325Z,15.12
2023-04-16T08:04:00.069Z,15.41
2023-04-16T08:06:55.471Z,15.39
2023-04-16T08:09:52.959Z,15.31
2023-04-16T08:12:49.555Z,15.45
2023-04-16T08:15:46.158Z,15.91
2023-04-16T08:18:46.633Z,15.91
2023-04-16T08:21:43.205Z,15.98
2023-04-16T08:24:38.785Z,15.92
2023-04-16T08:27:34.345Z,15.74
2023-04-16T08:30:30.913Z,16.18
2023-04-16T08:33:26.422Z,16.07
2023-04-16T08:36:23.000Z,15.97
2023-04-16T08:39:19.580Z,16.15
2023-04-16T08:42:23.156Z,16.03
2023-04-16T08:45:19.684Z,16.24
2023-04-16T08:48:20.200Z,16.24
2023-04-16T08:51:16.834Z,16.24
2023-04-16T08:54:24.309Z,16.34
2023-04-16T08:57:22.846Z,16.44
2023-04-16T09:00:24.406Z,16.52
2023-04-16T09:03:23.066Z,16.67
2023-04-16T09:06:19.512Z,17.52
2023-04-16T09:09:18.064Z,17.84
2023-04-16T09:12:15.625Z,17.98
2023-04-16T09:15:14.203Z,18.11
2023-04-16T09:18:11.715Z,19.4
2023-04-16T09:21:09.275Z,19.63
2023-04-16T09:24:05.871Z,19.16
2023-04-16T09:27:02.439Z,19.02
2023-04-16T09:30:12.092Z,19.09
2023-04-16T09:33:13.526Z,19.19
2023-04-16T09:36:21.195Z,18.98
2023-04-16T09:39:19.562Z,18.42
2023-04-16T09:42:21.143Z,18.41
2023-04-16T09:45:16.914Z,18.12
2023-04-16T09:48:13.253Z,17.6
2023-04-16T09:51:08.799Z,17.88
2023-04-16T09:54:06.399Z,18.11
2023-04-16T09:57:02.923Z,18.09
2023-04-16T10:00:04.450Z,18.41
2023-04-16T10:03:05.113Z,17.74
2023-04-16T10:06:06.552Z,17.78
2023-04-16T10:09:07.122Z,17.92
2023-04-16T10:12:03.666Z,18
2023-04-16T10:14:59.242Z,18.56
2023-04-16T10:17:57.805Z,18.7
2023-04-16T10:20:55.374Z,18.7
2023-04-16T10:23:52.917Z,18.56
2023-04-16T10:26:51.413Z,17.49
2023-04-16T10:29:49.029Z,17.6
2023-04-16T10:32:46.612Z,17.73
2023-04-16T10:35:52.362Z,17.18
2023-04-16T10:38:57.586Z,17.12
2023-04-16T10:42:02.170Z,17.13
2023-04-16T10:44:59.743Z,17.02
2023-04-16T10:47:57.369Z,17.09
2023-04-16T10:50:56.833Z,17.33
2023-04-16T10:57:04.961Z,17.98
2023-04-16T11:00:08.412Z,18.15
2023-04-16T11:03:05.175Z,17.93
2023-04-16T11:06:12.538Z,18.4
2023-04-16T11:09:13.189Z,18.28
2023-04-16T11:12:12.661Z,17.86
2023-04-16T11:15:09.176Z,17.93
2023-04-16T11:18:09.861Z,17.83
2023-04-16T11:21:08.334Z,17.84
2023-04-16T11:24:12.858Z,18.2
2023-04-16T11:27:08.400Z,18.17
2023-04-16T11:30:06.952Z,18.05
2023-04-16T11:33:05.522Z,18.22
2023-04-16T11:36:02.102Z,18.52
2023-04-16T11:39:07.591Z,18.6
2023-04-16T11:42:03.223Z,19
2023-04-16T11:45:00.752Z,19.32
2023-04-16T11:47:57.358Z,19.45
2023-04-16T11:50:55.801Z,19.96
2023-04-16T11:53:52.451Z,21.37
2023-04-16T11:56:49.956Z,21.92
2023-04-16T12:00:02.208Z,22.45
2023-04-16T12:02:51.322Z,22.02
2023-04-16T12:06:01.572Z,21.51
2023-04-16T12:09:06.128Z,22.35
2023-04-16T12:12:20.605Z,23.31
2023-04-16T12:15:22.146Z,21.83
2023-04-16T12:18:18.740Z,21.11
2023-04-16T12:21:15.316Z,20.4
2023-04-16T12:24:12.869Z,20.02
2023-04-16T12:27:10.445Z,20.34
2023-04-16T12:30:07.028Z,20.11
2023-04-16T12:33:12.558Z,19.75
2023-04-16T12:36:18.075Z,19.41
2023-04-16T12:39:14.624Z,18.92
2023-04-16T12:42:12.180Z,18.53
2023-04-16T12:45:08.683Z,18.31
2023-04-16T12:48:05.352Z,18.18
2023-04-16T12:51:02.826Z,18.23
2023-04-16T12:53:59.398Z,18.31
2023-04-16T12:56:55.994Z,18.37
2023-04-16T12:59:52.518Z,18.07
2023-04-16T13:02:48.237Z,17.84
2023-04-16T13:05:45.613Z,17.72
2023-04-16T13:08:42.191Z,17.72
2023-04-16T13:11:38.694Z,17.52
2023-04-16T13:14:36.328Z,17.33
2023-04-16T13:17:32.826Z,17.08
2023-04-16T13:20:28.431Z,16.39
2023-04-16T13:23:23.978Z,15.85
2023-04-16T13:26:21.535Z,15.51
2023-04-16T13:29:17.134Z,15.08
2023-04-16T13:32:14.674Z,15.08
2023-04-16T13:35:11.204Z,14.87
2023-04-16T13:38:07.817Z,14.91
2023-04-16T13:41:04.331Z,15.03
2023-04-16T13:44:00.911Z,14.84
2023-04-16T13:46:58.496Z,14.89
2023-04-16T13:49:55.016Z,14.8
2023-04-16T13:52:50.549Z,15
2023-04-16T13:55:51.098Z,15.17
2023-04-16T13:58:48.689Z,15.35
2023-04-16T14:01:44.276Z,15.4
2023-04-16T14:04:39.921Z,15.39
2023-04-16T14:07:37.355Z,15.25
2023-04-16T14:10:32.911Z,15.42
2023-04-16T14:13:29.481Z,15.59
2023-04-16T14:16:27.039Z,15.58
2023-04-16T14:19:23.586Z,15.66
2023-04-16T14:22:19.133Z,15.57
2023-04-16T14:25:14.674Z,15.65
2023-04-16T14:28:12.245Z,15.64
2023-04-16T14:31:09.131Z,15.66
2023-04-16T14:34:04.365Z,15.56
2023-04-16T14:37:03.975Z,15.58
2023-04-16T14:40:00.503Z,15.64
2023-04-16T14:42:56.038Z,15.7
2023-04-16T14:45:52.873Z,15.87
2023-04-16T14:48:48.186Z,15.97
2023-04-16T14:51:45.714Z,15.95
2023-04-16T14:54:41.295Z,15.95
2023-04-16T14:57:38.864Z,15.93
2023-04-16T15:00:40.368Z,15.9
2023-04-16T15:03:38.106Z,15.79
2023-04-16T15:06:36.009Z,15.8
2023-04-16T15:09:34.077Z,15.87
2023-04-16T15:12:31.630Z,15.85
2023-04-16T15:15:27.185Z,16.08
2023-04-16T15:18:24.852Z,16.29
2023-04-16T15:21:21.319Z,16.32
2023-04-16T15:24:16.824Z,16.28
2023-04-16T15:27:14.408Z,16.28
2023-04-16T15:30:11.994Z,16.4
2023-04-16T15:33:08.551Z,16.63
2023-04-16T15:36:06.071Z,16.49
2023-04-16T15:39:02.645Z,16.41
2023-04-16T15:42:02.991Z,16.51
2023-04-16T15:45:02.710Z,16.59
2023-04-16T15:47:58.371Z,16.64
2023-04-16T15:50:54.844Z,16.66
2023-04-16T15:53:51.410Z,16.52
2023-04-16T15:56:48.964Z,16.58
2023-04-16T16:00:03.192Z,16.45
2023-04-16T16:02:48.255Z,16.27
2023-04-16T16:05:46.687Z,16.19
2023-04-16T16:08:43.193Z,16.19
2023-04-16T16:11:40.764Z,16.11
2023-04-16T16:14:36.328Z,16.08
2023-04-16T16:17:32.864Z,16
2023-04-16T16:20:29.460Z,15.86
2023-04-16T16:23:25.973Z,15.74
2023-04-16T16:26:23.557Z,15.73
2023-04-16T16:29:20.115Z,15.7
2023-04-16T16:32:16.676Z,15.72
2023-04-16T16:35:12.232Z,15.76
2023-04-16T16:38:09.791Z,15.62
2023-04-16T16:41:06.364Z,15.72
2023-04-16T16:44:02.890Z,15.61
2023-04-16T16:46:59.491Z,15.55
2023-04-16T16:49:55.022Z,15.48
2023-04-16T16:52:53.580Z,15.45
2023-04-16T16:55:50.158Z,15.46
2023-04-16T16:58:48.699Z,15.46
2023-04-16T17:01:45.280Z,15.44
2023-04-16T17:04:40.885Z,15.22
2023-04-16T17:07:37.417Z,15.27
2023-04-16T17:10:32.955Z,15.05
2023-04-16T17:13:32.468Z,14.88
2023-04-16T17:16:29.041Z,14.66
2023-04-16T17:19:24.596Z,14.29
2023-04-16T17:22:21.162Z,13.98
2023-04-16T17:25:17.716Z,13.95
2023-04-16T17:28:13.259Z,13.9
2023-04-16T17:31:10.821Z,13.81
2023-04-16T17:34:07.393Z,13.64
2023-04-16T17:37:03.952Z,13.61
2023-04-16T17:40:01.541Z,13.89
2023-04-16T17:42:58.044Z,14.05
2023-04-16T17:45:54.675Z,13.97
2023-04-16T17:48:51.182Z,13.8
2023-04-16T17:51:48.739Z,13.82
2023-04-16T17:54:45.317Z,13.55
2023-04-16T17:57:41.861Z,13.27
2023-04-16T18:00:42.442Z,13.06
2023-04-16T18:03:42.133Z,13.02
2023-04-16T18:06:37.532Z,12.96
2023-04-16T18:09:34.043Z,12.82
2023-04-16T18:12:32.652Z,12.79
2023-04-16T18:15:29.258Z,12.77
2023-04-16T18:18:25.795Z,12.81
2023-04-16T18:21:22.308Z,12.76
2023-04-16T18:24:18.906Z,12.75
2023-04-16T18:27:14.450Z,12.69
2023-04-16T18:30:19.984Z,12.68
2023-04-16T18:36:14.103Z,12.62
2023-04-16T18:39:10.636Z,12.61
2023-04-16T18:42:06.227Z,12.64
2023-04-16T18:45:01.748Z,12.51
2023-04-16T18:47:58.344Z,12.53
2023-04-16T18:50:54.879Z,12.52
2023-04-16T18:53:51.432Z,12.55
2023-04-16T18:56:46.997Z,12.45
2023-04-16T18:59:43.517Z,12.43
2023-04-16T19:02:41.212Z,12.43
2023-04-16T19:05:39.677Z,12.43
2023-04-16T19:08:36.198Z,12.44
2023-04-16T19:11:32.778Z,12.42
2023-04-16T19:14:29.353Z,12.44
2023-04-16T19:17:26.945Z,12.38
2023-04-16T19:20:23.450Z,12.34
2023-04-16T19:23:18.993Z,12.31
2023-04-16T19:26:15.573Z,12.33
2023-04-16T19:29:11.367Z,12.33
2023-04-16T19:32:07.776Z,12.3
2023-04-16T19:35:04.252Z,12.26
2023-04-16T19:38:00.870Z,12.22
2023-04-16T19:40:56.361Z,12.25
2023-04-16T19:43:53.955Z,12.33
2023-04-16T19:46:49.527Z,12.36
2023-04-16T19:49:46.054Z,12.41
2023-04-16T19:52:41.614Z,12.45
2023-04-16T19:55:43.188Z,12.51
2023-04-16T19:58:38.711Z,12.38
2023-04-16T20:01:39.336Z,12.41
2023-04-16T20:04:35.821Z,12.5
2023-04-16T20:07:38.387Z,12.53
2023-04-16T20:10:40.937Z,12.37
2023-04-16T20:13:38.717Z,12.31
2023-04-16T20:16:38.063Z,12.4
2023-04-16T20:19:37.610Z,12.45
2023-04-16T20:22:44.433Z,12.56
2023-04-16T20:25:41.678Z,12.71
2023-04-16T20:28:39.200Z,12.7
2023-04-16T20:31:35.109Z,12.67
2023-04-16T20:34:31.318Z,12.65
2023-04-16T20:37:28.896Z,12.64
2023-04-16T20:40:30.497Z,12.59
2023-04-16T20:43:29.069Z,12.51
2023-04-16T20:46:25.583Z,12.47
2023-04-16T20:49:23.119Z,12.62
2023-04-16T20:52:19.722Z,12.53
2023-04-16T20:55:17.221Z,12.44
2023-04-16T20:58:12.802Z,12.45
2023-04-16T21:01:08.413Z,12.46
2023-04-16T21:04:09.091Z,12.36
2023-04-16T21:10:20.000Z,12.45
2023-04-16T21:13:16.590Z,12.43
2023-04-16T21:16:15.117Z,12.45
2023-04-16T21:19:11.990Z,12.42
2023-04-16T21:22:13.197Z,12.45
2023-04-16T21:25:13.772Z,12.42
2023-04-16T21:28:10.275Z,12.57
2023-04-16T21:31:06.837Z,12.58
2023-04-16T21:34:04.406Z,12.56
2023-04-16T21:37:00.937Z,12.59
2023-04-16T21:40:02.530Z,12.56
2023-04-16T21:43:01.080Z,12.58
2023-04-16T21:45:58.662Z,12.63
2023-04-16T21:48:55.201Z,12.59
2023-04-16T21:52:06.631Z,12.57
2023-04-16T21:55:09.269Z,12.62
2023-04-16T21:58:06.813Z,12.6
2023-04-16T22:01:03.364Z,12.68
2023-04-16T22:04:03.995Z,12.72
2023-04-16T22:07:02.500Z,12.73
2023-04-16T22:09:58.033Z,12.75
2023-04-16T22:12:54.576Z,12.83
2023-04-16T22:15:51.150Z,12.87
2023-04-16T22:18:47.703Z,12.92
2023-04-16T22:21:43.251Z,12.9
2023-04-16T22:24:38.796Z,12.94
2023-04-16T22:27:35.385Z,13.02
2023-04-16T22:30:30.930Z,13.14
2023-04-16T22:33:28.499Z,13.11
2023-04-16T22:36:24.043Z,13.2
2023-04-16T22:39:22.635Z,13.23
2023-04-16T22:42:18.224Z,13.21
2023-04-16T22:45:16.756Z,13.11
2023-04-16T22:48:13.318Z,13.22
2023-04-16T22:51:08.844Z,13.22
2023-04-16T22:54:04.450Z,13.2
2023-04-16T22:57:01.987Z,13.08
2023-04-16T22:59:58.526Z,13.19
2023-04-16T23:02:55.212Z,13.21
2023-04-16T23:05:52.699Z,13.2
2023-04-16T23:08:48.201Z,13.24
2023-04-16T23:11:43.759Z,13.2
2023-04-16T23:14:45.330Z,13.24
2023-04-16T23:20:50.411Z,13.25
2023-04-16T23:23:45.926Z,13.1
2023-04-16T23:26:41.547Z,13.1
2023-04-16T23:29:38.118Z,13.05
2023-04-16T23:32:33.657Z,13.14
2023-04-16T23:35:30.208Z,13.22
2023-04-16T23:38:26.769Z,13.32
2023-04-16T23:41:23.363Z,13.12
2023-04-16T23:44:19.867Z,13.18
2023-04-16T23:47:16.458Z,13.29
2023-04-16T23:50:12.013Z,13.35
2023-04-16T23:53:07.576Z,13.33
2023-04-16T23:56:03.129Z,13.37
2023-04-16T23:58:58.699Z,13.44
